sensor_id;sensor_type;location;lat;lon;timestamp;pressure;altitude;pressure_sealevel;temperature;humidity
52651;BME280;38537;47.226;39.702;2023-03-22T00:00:28;100520.50;;;10.05;68.03
52651;BME280;38537;47.226;39.702;2023-03-22T00:02:55;100487.66;;;9.78;68.07
52651;BME280;38537;47.226;39.702;2023-03-22T00:05:23;100481.50;;;9.81;68.06
52651;BME280;38537;47.226;39.702;2023-03-22T00:07:50;100513.91;;;9.96;67.82
52651;BME280;38537;47.226;39.702;2023-03-22T00:10:20;100509.44;;;9.76;68.30
52651;BME280;38537;47.226;39.702;2023-03-22T00:12:47;100469.00;;;9.36;68.38
52651;BME280;38537;47.226;39.702;2023-03-22T00:15:15;100514.09;;;9.62;68.86
52651;BME280;38537;47.226;39.702;2023-03-22T00:17:42;100497.81;;;9.50;69.03
52651;BME280;38537;47.226;39.702;2023-03-22T00:20:12;100518.31;;;9.59;69.09
52651;BME280;38537;47.226;39.702;2023-03-22T00:22:39;100516.59;;;9.63;69.65
52651;BME280;38537;47.226;39.702;2023-03-22T00:25:08;100529.47;;;9.59;69.54
52651;BME280;38537;47.226;39.702;2023-03-22T00:27:36;100511.03;;;9.63;69.51
52651;BME280;38537;47.226;39.702;2023-03-22T00:30:05;100524.69;;;9.84;68.93
52651;BME280;38537;47.226;39.702;2023-03-22T00:32:39;100518.50;;;9.68;69.72
52651;BME280;38537;47.226;39.702;2023-03-22T00:35:09;100507.69;;;9.61;69.61
52651;BME280;38537;47.226;39.702;2023-03-22T00:37:37;100493.66;;;9.48;69.41
52651;BME280;38537;47.226;39.702;2023-03-22T00:40:07;100492.00;;;9.47;69.74
52651;BME280;38537;47.226;39.702;2023-03-22T00:42:39;100499.00;;;9.44;70.19
52651;BME280;38537;47.226;39.702;2023-03-22T00:45:08;100534.22;;;9.59;69.83
52651;BME280;38537;47.226;39.702;2023-03-22T00:47:36;100530.97;;;9.52;69.84
52651;BME280;38537;47.226;39.702;2023-03-22T00:50:06;100511.34;;;9.38;70.08
52651;BME280;38537;47.226;39.702;2023-03-22T00:52:34;100522.81;;;9.55;70.06
52651;BME280;38537;47.226;39.702;2023-03-22T00:55:02;100505.16;;;9.41;70.02
52651;BME280;38537;47.226;39.702;2023-03-22T00:57:29;100528.41;;;9.55;69.89
52651;BME280;38537;47.226;39.702;2023-03-22T00:59:57;100504.88;;;9.43;70.02
52651;BME280;38537;47.226;39.702;2023-03-22T01:02:25;100506.09;;;9.55;70.12
52651;BME280;38537;47.226;39.702;2023-03-22T01:04:56;100490.06;;;9.47;69.88
52651;BME280;38537;47.226;39.702;2023-03-22T01:07:24;100532.56;;;9.58;70.09
52651;BME280;38537;47.226;39.702;2023-03-22T01:09:52;100519.00;;;9.51;70.29
52651;BME280;38537;47.226;39.702;2023-03-22T01:12:19;100510.25;;;9.34;70.13
52651;BME280;38537;47.226;39.702;2023-03-22T01:14:46;100519.16;;;9.36;70.53
52651;BME280;38537;47.226;39.702;2023-03-22T01:17:14;100526.22;;;9.28;70.87
52651;BME280;38537;47.226;39.702;2023-03-22T01:19:41;100515.09;;;9.28;71.07
52651;BME280;38537;47.226;39.702;2023-03-22T01:22:08;100509.28;;;9.25;71.28
52651;BME280;38537;47.226;39.702;2023-03-22T01:24:36;100464.78;;;8.91;71.46
52651;BME280;38537;47.226;39.702;2023-03-22T01:27:03;100511.81;;;9.21;71.51
52651;BME280;38537;47.226;39.702;2023-03-22T01:29:31;100515.81;;;9.10;71.46
52651;BME280;38537;47.226;39.702;2023-03-22T01:31:58;100525.00;;;9.11;71.68
52651;BME280;38537;47.226;39.702;2023-03-22T01:34:25;100530.91;;;9.09;71.62
52651;BME280;38537;47.226;39.702;2023-03-22T01:36:53;100519.84;;;8.99;71.63
52651;BME280;38537;47.226;39.702;2023-03-22T01:39:20;100522.94;;;8.98;71.97
52651;BME280;38537;47.226;39.702;2023-03-22T01:41:53;100510.00;;;8.83;71.99
52651;BME280;38537;47.226;39.702;2023-03-22T01:44:22;100531.31;;;8.92;71.85
52651;BME280;38537;47.226;39.702;2023-03-22T01:46:52;100532.75;;;8.90;72.41
52651;BME280;38537;47.226;39.702;2023-03-22T01:51:48;100519.66;;;8.90;72.75
52651;BME280;38537;47.226;39.702;2023-03-22T01:54:48;100545.25;;;9.21;73.04
52651;BME280;38537;47.226;39.702;2023-03-22T01:57:32;100532.34;;;9.31;72.28
52651;BME280;38537;47.226;39.702;2023-03-22T02:00:09;100511.25;;;8.96;71.58
52651;BME280;38537;47.226;39.702;2023-03-22T02:02:47;100518.34;;;8.83;72.31
52651;BME280;38537;47.226;39.702;2023-03-22T02:05:24;100534.06;;;8.98;72.28
52651;BME280;38537;47.226;39.702;2023-03-22T02:07:55;100554.97;;;9.24;72.13
52651;BME280;38537;47.226;39.702;2023-03-22T02:10:25;100553.56;;;9.26;72.00
52651;BME280;38537;47.226;39.702;2023-03-22T02:13:11;100529.56;;;9.02;72.19
52651;BME280;38537;47.226;39.702;2023-03-22T02:15:58;100554.91;;;9.05;72.42
52651;BME280;38537;47.226;39.702;2023-03-22T02:19:12;100553.56;;;8.98;72.25
52651;BME280;38537;47.226;39.702;2023-03-22T02:30:54;100540.16;;;8.71;73.94
52651;BME280;38537;47.226;39.702;2023-03-22T02:34:24;100554.63;;;8.73;74.19
52651;BME280;38537;47.226;39.702;2023-03-22T02:48:29;100509.94;;;8.20;74.28
52651;BME280;38537;47.226;39.702;2023-03-22T02:51:04;100555.09;;;8.46;73.99
52651;BME280;38537;47.226;39.702;2023-03-22T02:53:38;100545.16;;;8.40;74.21
52651;BME280;38537;47.226;39.702;2023-03-22T02:56:22;100546.53;;;8.42;73.94
52651;BME280;38537;47.226;39.702;2023-03-22T02:59:02;100549.78;;;8.49;74.71
52651;BME280;38537;47.226;39.702;2023-03-22T03:01:37;100558.97;;;8.50;74.19
52651;BME280;38537;47.226;39.702;2023-03-22T03:04:10;100547.94;;;8.40;74.05
52651;BME280;38537;47.226;39.702;2023-03-22T03:06:42;100554.28;;;8.45;74.50
52651;BME280;38537;47.226;39.702;2023-03-22T03:09:15;100554.03;;;8.42;73.84
52651;BME280;38537;47.226;39.702;2023-03-22T03:11:51;100536.56;;;8.26;74.57
52651;BME280;38537;47.226;39.702;2023-03-22T03:14:25;100539.13;;;8.22;74.38
52651;BME280;38537;47.226;39.702;2023-03-22T03:17:21;100575.69;;;8.45;74.74
52651;BME280;38537;47.226;39.702;2023-03-22T03:22:34;100586.25;;;8.48;74.54
52651;BME280;38537;47.226;39.702;2023-03-22T03:25:23;100587.88;;;8.59;75.11
52651;BME280;38537;47.226;39.702;2023-03-22T03:31:07;100568.41;;;8.54;74.88
52651;BME280;38537;47.226;39.702;2023-03-22T03:33:47;100573.94;;;8.59;74.20
52651;BME280;38537;47.226;39.702;2023-03-22T03:36:20;100552.28;;;8.51;74.01
52651;BME280;38537;47.226;39.702;2023-03-22T03:38:51;100525.69;;;8.40;73.87
52651;BME280;38537;47.226;39.702;2023-03-22T03:41:27;100522.38;;;8.33;74.07
52651;BME280;38537;47.226;39.702;2023-03-22T03:43:57;100505.75;;;8.22;74.12
52651;BME280;38537;47.226;39.702;2023-03-22T03:46:26;100587.19;;;8.72;73.82
52651;BME280;38537;47.226;39.702;2023-03-22T03:48:58;100561.75;;;8.50;73.61
52651;BME280;38537;47.226;39.702;2023-03-22T03:51:26;100578.41;;;8.60;74.07
52651;BME280;38537;47.226;39.702;2023-03-22T03:53:54;100554.47;;;8.59;73.79
52651;BME280;38537;47.226;39.702;2023-03-22T03:56:21;100588.31;;;8.71;73.74
52651;BME280;38537;47.226;39.702;2023-03-22T03:58:50;100604.31;;;8.89;73.79
52651;BME280;38537;47.226;39.702;2023-03-22T04:01:19;100580.81;;;8.67;73.46
52651;BME280;38537;47.226;39.702;2023-03-22T04:04:08;100524.03;;;8.34;73.40
52651;BME280;38537;47.226;39.702;2023-03-22T04:06:59;100593.41;;;8.64;73.29
52651;BME280;38537;47.226;39.702;2023-03-22T04:09:31;100609.69;;;8.81;73.50
52651;BME280;38537;47.226;39.702;2023-03-22T04:12:08;100589.50;;;8.65;73.20
52651;BME280;38537;47.226;39.702;2023-03-22T04:14:36;100601.69;;;8.69;73.67
52651;BME280;38537;47.226;39.702;2023-03-22T04:17:12;100581.22;;;8.55;73.52
52651;BME280;38537;47.226;39.702;2023-03-22T04:19:39;100614.47;;;8.75;73.36
52651;BME280;38537;47.226;39.702;2023-03-22T04:22:08;100614.78;;;8.69;73.62
52651;BME280;38537;47.226;39.702;2023-03-22T04:24:40;100616.78;;;8.63;73.61
52651;BME280;38537;47.226;39.702;2023-03-22T04:27:08;100590.72;;;8.49;73.55
52651;BME280;38537;47.226;39.702;2023-03-22T04:29:45;100632.53;;;8.78;73.83
52651;BME280;38537;47.226;39.702;2023-03-22T04:32:31;100605.13;;;8.56;73.53
52651;BME280;38537;47.226;39.702;2023-03-22T04:34:58;100643.41;;;8.74;73.12
52651;BME280;38537;47.226;39.702;2023-03-22T04:37:26;100557.97;;;8.31;72.88
52651;BME280;38537;47.226;39.702;2023-03-22T04:40:05;100633.34;;;8.83;72.94
52651;BME280;38537;47.226;39.702;2023-03-22T04:42:39;100640.50;;;8.89;72.50
52651;BME280;38537;47.226;39.702;2023-03-22T04:45:19;100629.31;;;8.66;72.27
52651;BME280;38537;47.226;39.702;2023-03-22T04:47:53;100621.69;;;8.76;72.62
52651;BME280;38537;47.226;39.702;2023-03-22T04:50:20;100646.69;;;8.86;72.36
52651;BME280;38537;47.226;39.702;2023-03-22T04:52:52;100631.16;;;8.75;72.37
52651;BME280;38537;47.226;39.702;2023-03-22T04:55:19;100661.72;;;8.85;72.15
52651;BME280;38537;47.226;39.702;2023-03-22T04:57:48;100633.50;;;8.63;72.62
52651;BME280;38537;47.226;39.702;2023-03-22T05:00:17;100654.53;;;8.79;72.34
52651;BME280;38537;47.226;39.702;2023-03-22T05:02:45;100662.72;;;9.00;72.62
52651;BME280;38537;47.226;39.702;2023-03-22T05:05:23;100677.16;;;9.07;72.41
52651;BME280;38537;47.226;39.702;2023-03-22T05:07:51;100660.84;;;8.90;72.15
52651;BME280;38537;47.226;39.702;2023-03-22T05:10:19;100650.03;;;8.83;72.23
52651;BME280;38537;47.226;39.702;2023-03-22T05:12:47;100650.31;;;8.87;72.43
52651;BME280;38537;47.226;39.702;2023-03-22T05:15:21;100678.72;;;9.18;72.96
52651;BME280;38537;47.226;39.702;2023-03-22T05:17:50;100668.72;;;8.78;72.27
52651;BME280;38537;47.226;39.702;2023-03-22T05:20:18;100658.78;;;8.67;72.80
52651;BME280;38537;47.226;39.702;2023-03-22T05:22:54;100673.19;;;8.79;73.14
52651;BME280;38537;47.226;39.702;2023-03-22T05:25:27;100655.69;;;8.68;73.42
52651;BME280;38537;47.226;39.702;2023-03-22T05:27:55;100646.91;;;8.51;73.48
52651;BME280;38537;47.226;39.702;2023-03-22T05:30:36;100666.28;;;8.66;73.66
52651;BME280;38537;47.226;39.702;2023-03-22T05:33:13;100671.28;;;8.69;73.98
52651;BME280;38537;47.226;39.702;2023-03-22T05:35:44;100633.63;;;8.43;74.09
52651;BME280;38537;47.226;39.702;2023-03-22T05:38:12;100611.41;;;8.27;74.22
52651;BME280;38537;47.226;39.702;2023-03-22T05:40:44;100673.53;;;8.67;74.19
52651;BME280;38537;47.226;39.702;2023-03-22T05:43:12;100666.25;;;8.71;74.69
52651;BME280;38537;47.226;39.702;2023-03-22T05:45:44;100663.06;;;8.88;74.31
52651;BME280;38537;47.226;39.702;2023-03-22T05:48:44;100700.97;;;9.23;73.89
52651;BME280;38537;47.226;39.702;2023-03-22T05:51:13;100688.75;;;9.19;73.64
52651;BME280;38537;47.226;39.702;2023-03-22T05:53:47;100694.25;;;9.29;73.62
52651;BME280;38537;47.226;39.702;2023-03-22T05:56:20;100699.44;;;9.41;73.16
52651;BME280;38537;47.226;39.702;2023-03-22T05:58:58;100685.19;;;9.42;73.02
52651;BME280;38537;47.226;39.702;2023-03-22T06:01:25;100685.75;;;9.44;72.82
52651;BME280;38537;47.226;39.702;2023-03-22T06:04:09;100688.50;;;9.49;72.09
52651;BME280;38537;47.226;39.702;2023-03-22T06:06:48;100717.53;;;9.72;72.06
52651;BME280;38537;47.226;39.702;2023-03-22T06:09:36;100718.00;;;9.79;71.47
52651;BME280;38537;47.226;39.702;2023-03-22T06:12:08;100708.69;;;9.65;71.09
52651;BME280;38537;47.226;39.702;2023-03-22T06:14:36;100728.81;;;9.86;71.32
52651;BME280;38537;47.226;39.702;2023-03-22T06:17:26;100707.63;;;9.85;70.77
52651;BME280;38537;47.226;39.702;2023-03-22T06:19:53;100722.53;;;9.99;70.53
52651;BME280;38537;47.226;39.702;2023-03-22T06:22:22;100680.81;;;9.89;70.68
52651;BME280;38537;47.226;39.702;2023-03-22T06:24:50;100699.22;;;10.14;70.34
52651;BME280;38537;47.226;39.702;2023-03-22T06:27:30;100720.75;;;10.37;69.69
52651;BME280;38537;47.226;39.702;2023-03-22T06:29:57;100698.31;;;10.42;69.72
52651;BME280;38537;47.226;39.702;2023-03-22T06:32:25;100709.22;;;10.62;69.24
52651;BME280;38537;47.226;39.702;2023-03-22T06:34:55;100700.19;;;10.71;69.29
52651;BME280;38537;47.226;39.702;2023-03-22T06:37:24;100711.28;;;10.94;69.08
52651;BME280;38537;47.226;39.702;2023-03-22T06:39:53;100687.50;;;10.97;68.45
52651;BME280;38537;47.226;39.702;2023-03-22T06:42:23;100704.78;;;11.18;68.08
52651;BME280;38537;47.226;39.702;2023-03-22T06:45:02;100714.03;;;11.32;67.58
52651;BME280;38537;47.226;39.702;2023-03-22T06:47:33;100716.16;;;11.40;67.44
52651;BME280;38537;47.226;39.702;2023-03-22T06:50:00;100710.66;;;11.49;67.49
52651;BME280;38537;47.226;39.702;2023-03-22T06:52:48;100686.53;;;11.39;67.05
52651;BME280;38537;47.226;39.702;2023-03-22T06:55:15;100662.56;;;11.33;67.11
52651;BME280;38537;47.226;39.702;2023-03-22T06:57:43;100658.56;;;11.39;66.63
52651;BME280;38537;47.226;39.702;2023-03-22T07:00:11;100710.16;;;11.79;66.25
52651;BME280;38537;47.226;39.702;2023-03-22T07:02:38;100695.16;;;11.89;66.18
52651;BME280;38537;47.226;39.702;2023-03-22T07:05:21;100698.28;;;12.01;65.70
52651;BME280;38537;47.226;39.702;2023-03-22T07:07:50;100687.38;;;12.13;65.79
52651;BME280;38537;47.226;39.702;2023-03-22T07:10:17;100639.50;;;12.01;65.21
52651;BME280;38537;47.226;39.702;2023-03-22T07:12:50;100675.03;;;12.42;64.79
52651;BME280;38537;47.226;39.702;2023-03-22T07:15:19;100675.56;;;12.44;64.38
52651;BME280;38537;47.226;39.702;2023-03-22T07:17:56;100677.31;;;12.53;64.10
52651;BME280;38537;47.226;39.702;2023-03-22T07:20:23;100697.81;;;12.76;63.60
52651;BME280;38537;47.226;39.702;2023-03-22T07:22:51;100684.94;;;12.75;63.64
52651;BME280;38537;47.226;39.702;2023-03-22T07:25:21;100675.97;;;12.87;63.61
52651;BME280;38537;47.226;39.702;2023-03-22T07:27:58;100699.91;;;13.07;63.26
52651;BME280;38537;47.226;39.702;2023-03-22T07:30:27;100686.69;;;13.21;63.13
52651;BME280;38537;47.226;39.702;2023-03-22T07:32:54;100660.22;;;13.13;63.61
52651;BME280;38537;47.226;39.702;2023-03-22T07:35:22;100659.72;;;13.33;62.44
52651;BME280;38537;47.226;39.702;2023-03-22T07:37:52;100657.34;;;13.49;62.63
52651;BME280;38537;47.226;39.702;2023-03-22T07:40:26;100666.69;;;13.67;61.97
52651;BME280;38537;47.226;39.702;2023-03-22T07:42:54;100687.94;;;13.90;61.71
52651;BME280;38537;47.226;39.702;2023-03-22T07:45:45;100673.19;;;14.07;61.30
52651;BME280;38537;47.226;39.702;2023-03-22T07:48:31;100653.59;;;14.33;61.68
52651;BME280;38537;47.226;39.702;2023-03-22T07:51:21;100658.31;;;14.63;61.68
52651;BME280;38537;47.226;39.702;2023-03-22T07:53:49;100657.53;;;14.89;61.61
52651;BME280;38537;47.226;39.702;2023-03-22T07:56:16;100651.22;;;15.09;60.64
52651;BME280;38537;47.226;39.702;2023-03-22T07:58:45;100635.16;;;15.18;60.13
52651;BME280;38537;47.226;39.702;2023-03-22T08:01:14;100677.16;;;15.49;58.59
52651;BME280;38537;47.226;39.702;2023-03-22T08:03:50;100641.75;;;15.39;59.59
52651;BME280;38537;47.226;39.702;2023-03-22T08:06:41;100657.97;;;15.60;58.62
52651;BME280;38537;47.226;39.702;2023-03-22T08:09:09;100652.44;;;15.81;58.75
52651;BME280;38537;47.226;39.702;2023-03-22T08:11:37;100640.06;;;15.73;57.51
52651;BME280;38537;47.226;39.702;2023-03-22T08:14:04;100638.00;;;15.91;58.71
52651;BME280;38537;47.226;39.702;2023-03-22T08:16:35;100657.28;;;16.18;57.36
52651;BME280;38537;47.226;39.702;2023-03-22T08:19:05;100639.97;;;16.28;56.59
52651;BME280;38537;47.226;39.702;2023-03-22T08:21:35;100634.00;;;16.30;56.19
52651;BME280;38537;47.226;39.702;2023-03-22T08:24:06;100624.56;;;16.26;56.61
52651;BME280;38537;47.226;39.702;2023-03-22T08:26:47;100629.28;;;16.42;56.06
52651;BME280;38537;47.226;39.702;2023-03-22T08:29:40;100629.03;;;16.56;55.80
52651;BME280;38537;47.226;39.702;2023-03-22T08:32:07;100645.34;;;16.71;55.62
52651;BME280;38537;47.226;39.702;2023-03-22T08:34:39;100642.78;;;16.87;55.51
52651;BME280;38537;47.226;39.702;2023-03-22T08:37:08;100655.06;;;17.03;54.98
52651;BME280;38537;47.226;39.702;2023-03-22T08:39:36;100632.50;;;16.83;54.17
52651;BME280;38537;47.226;39.702;2023-03-22T08:42:25;100642.28;;;17.06;55.32
52651;BME280;38537;47.226;39.702;2023-03-22T08:44:52;100634.69;;;16.98;54.18
52651;BME280;38537;47.226;39.702;2023-03-22T08:47:22;100662.50;;;17.08;53.82
52651;BME280;38537;47.226;39.702;2023-03-22T08:49:53;100655.81;;;17.12;53.84
52651;BME280;38537;47.226;39.702;2023-03-22T08:52:34;100612.81;;;16.95;54.54
52651;BME280;38537;47.226;39.702;2023-03-22T08:55:21;100633.13;;;17.09;53.93
52651;BME280;38537;47.226;39.702;2023-03-22T08:58:07;100630.41;;;17.12;54.76
52651;BME280;38537;47.226;39.702;2023-03-22T09:01:03;100653.53;;;17.27;53.57
52651;BME280;38537;47.226;39.702;2023-03-22T09:03:43;100637.97;;;17.21;53.40
52651;BME280;38537;47.226;39.702;2023-03-22T09:06:12;100635.66;;;17.23;54.07
52651;BME280;38537;47.226;39.702;2023-03-22T09:08:40;100640.28;;;17.39;53.99
52651;BME280;38537;47.226;39.702;2023-03-22T09:11:12;100635.38;;;17.48;53.04
52651;BME280;38537;47.226;39.702;2023-03-22T09:13:42;100656.47;;;17.63;54.11
52651;BME280;38537;47.226;39.702;2023-03-22T09:16:09;100630.91;;;17.80;53.82
52651;BME280;38537;47.226;39.702;2023-03-22T09:18:38;100652.44;;;17.85;51.65
52651;BME280;38537;47.226;39.702;2023-03-22T09:21:14;100624.28;;;17.64;51.29
52651;BME280;38537;47.226;39.702;2023-03-22T09:24:01;100634.19;;;17.70;51.81
52651;BME280;38537;47.226;39.702;2023-03-22T09:26:38;100651.41;;;17.90;51.43
52651;BME280;38537;47.226;39.702;2023-03-22T09:29:05;100642.44;;;18.00;51.30
52651;BME280;38537;47.226;39.702;2023-03-22T09:31:33;100607.84;;;17.91;51.54
52651;BME280;38537;47.226;39.702;2023-03-22T09:34:21;100627.38;;;18.20;51.89
52651;BME280;38537;47.226;39.702;2023-03-22T09:36:48;100604.66;;;18.04;50.91
52651;BME280;38537;47.226;39.702;2023-03-22T09:39:19;100621.38;;;18.22;50.66
52651;BME280;38537;47.226;39.702;2023-03-22T09:41:53;100644.13;;;18.37;49.51
52651;BME280;38537;47.226;39.702;2023-03-22T09:46:56;100627.72;;;18.43;48.29
52651;BME280;38537;47.226;39.702;2023-03-22T09:49:31;100631.66;;;18.38;47.97
52651;BME280;38537;47.226;39.702;2023-03-22T09:52:18;100634.22;;;18.43;48.37
52651;BME280;38537;47.226;39.702;2023-03-22T09:54:46;100632.38;;;18.60;50.20
52651;BME280;38537;47.226;39.702;2023-03-22T09:57:17;100630.00;;;18.62;48.68
52651;BME280;38537;47.226;39.702;2023-03-22T09:59:57;100613.38;;;18.48;47.11
52651;BME280;38537;47.226;39.702;2023-03-22T10:05:34;100637.50;;;18.70;46.80
52651;BME280;38537;47.226;39.702;2023-03-22T10:10:45;100630.81;;;18.62;47.19
52651;BME280;38537;47.226;39.702;2023-03-22T10:15:45;100592.53;;;18.28;47.25
52651;BME280;38537;47.226;39.702;2023-03-22T10:18:25;100620.78;;;18.53;46.86
52651;BME280;38537;47.226;39.702;2023-03-22T10:21:01;100618.66;;;18.49;45.65
52651;BME280;38537;47.226;39.702;2023-03-22T10:23:54;100615.88;;;18.62;47.69
52651;BME280;38537;47.226;39.702;2023-03-22T10:26:29;100608.06;;;18.59;44.64
52651;BME280;38537;47.226;39.702;2023-03-22T10:29:01;100610.88;;;18.59;45.68
52651;BME280;38537;47.226;39.702;2023-03-22T10:31:31;100599.81;;;18.54;45.29
52651;BME280;38537;47.226;39.702;2023-03-22T10:34:18;100571.53;;;18.54;44.45
52651;BME280;38537;47.226;39.702;2023-03-22T10:36:48;100602.94;;;18.89;46.22
52651;BME280;38537;47.226;39.702;2023-03-22T10:39:28;100597.16;;;18.85;45.09
52651;BME280;38537;47.226;39.702;2023-03-22T10:42:04;100590.94;;;18.79;45.33
52651;BME280;38537;47.226;39.702;2023-03-22T10:44:48;100595.41;;;18.80;44.42
52651;BME280;38537;47.226;39.702;2023-03-22T10:47:19;100607.22;;;18.70;43.81
52651;BME280;38537;47.226;39.702;2023-03-22T10:49:51;100598.72;;;18.82;44.45
52651;BME280;38537;47.226;39.702;2023-03-22T10:54:57;100574.84;;;18.43;46.47
52651;BME280;38537;47.226;39.702;2023-03-22T10:57:30;100599.47;;;18.43;44.73
52651;BME280;38537;47.226;39.702;2023-03-22T10:59:57;100606.66;;;18.28;44.47
52651;BME280;38537;47.226;39.702;2023-03-22T11:02:28;100598.22;;;18.16;44.03
52651;BME280;38537;47.226;39.702;2023-03-22T11:05:01;100594.28;;;18.21;45.21
52651;BME280;38537;47.226;39.702;2023-03-22T11:07:43;100602.41;;;18.46;46.04
52651;BME280;38537;47.226;39.702;2023-03-22T11:10:27;100586.41;;;18.38;44.02
52651;BME280;38537;47.226;39.702;2023-03-22T11:15:40;100599.34;;;18.64;44.83
52651;BME280;38537;47.226;39.702;2023-03-22T11:18:13;100580.63;;;18.59;43.98
52651;BME280;38537;47.226;39.702;2023-03-22T11:20:53;100574.69;;;18.64;44.05
52651;BME280;38537;47.226;39.702;2023-03-22T11:23:21;100575.06;;;18.63;43.88
52651;BME280;38537;47.226;39.702;2023-03-22T11:25:51;100587.84;;;18.84;44.54
52651;BME280;38537;47.226;39.702;2023-03-22T11:28:33;100592.28;;;18.98;45.06
52651;BME280;38537;47.226;39.702;2023-03-22T11:31:13;100594.06;;;19.02;42.77
52651;BME280;38537;47.226;39.702;2023-03-22T11:34:15;100599.75;;;19.18;44.78
52651;BME280;38537;47.226;39.702;2023-03-22T11:36:44;100558.91;;;19.03;43.38
52651;BME280;38537;47.226;39.702;2023-03-22T11:39:14;100560.94;;;18.91;42.68
52651;BME280;38537;47.226;39.702;2023-03-22T11:41:43;100574.50;;;18.97;43.53
52651;BME280;38537;47.226;39.702;2023-03-22T11:44:14;100590.34;;;19.14;44.25
52651;BME280;38537;47.226;39.702;2023-03-22T11:46:54;100597.06;;;19.09;42.18
52651;BME280;38537;47.226;39.702;2023-03-22T11:49:27;100561.38;;;18.65;42.21
52651;BME280;38537;47.226;39.702;2023-03-22T11:52:07;100596.25;;;18.81;42.13
52651;BME280;38537;47.226;39.702;2023-03-22T11:54:35;100570.09;;;18.72;43.50
52651;BME280;38537;47.226;39.702;2023-03-22T11:57:05;100567.50;;;18.67;42.74
52651;BME280;38537;47.226;39.702;2023-03-22T11:59:38;100596.16;;;18.65;42.23
52651;BME280;38537;47.226;39.702;2023-03-22T12:04:53;100563.50;;;18.56;44.07
52651;BME280;38537;47.226;39.702;2023-03-22T12:07:24;100582.81;;;18.78;44.46
52651;BME280;38537;47.226;39.702;2023-03-22T12:10:06;100585.59;;;18.90;44.45
52651;BME280;38537;47.226;39.702;2023-03-22T12:12:43;100577.31;;;18.97;45.10
52651;BME280;38537;47.226;39.702;2023-03-22T12:15:22;100588.84;;;19.04;43.10
52651;BME280;38537;47.226;39.702;2023-03-22T12:20:57;100548.00;;;19.05;43.68
52651;BME280;38537;47.226;39.702;2023-03-22T12:23:32;100576.78;;;19.07;42.06
52651;BME280;38537;47.226;39.702;2023-03-22T12:28:42;100576.84;;;18.95;42.04
52651;BME280;38537;47.226;39.702;2023-03-22T12:31:19;100566.31;;;18.68;42.24
52651;BME280;38537;47.226;39.702;2023-03-22T12:33:57;100565.31;;;18.60;42.24
52651;BME280;38537;47.226;39.702;2023-03-22T12:36:36;100579.09;;;18.62;42.43
52651;BME280;38537;47.226;39.702;2023-03-22T12:39:13;100547.06;;;18.21;42.09
52651;BME280;38537;47.226;39.702;2023-03-22T12:41:46;100567.78;;;18.25;43.27
52651;BME280;38537;47.226;39.702;2023-03-22T12:44:38;100555.09;;;18.07;43.17
52651;BME280;38537;47.226;39.702;2023-03-22T12:47:20;100558.63;;;18.16;43.39
52651;BME280;38537;47.226;39.702;2023-03-22T12:49:57;100549.69;;;18.02;43.12
52651;BME280;38537;47.226;39.702;2023-03-22T12:52:43;100569.94;;;18.04;42.93
52651;BME280;38537;47.226;39.702;2023-03-22T12:55:35;100560.41;;;17.96;43.17
52651;BME280;38537;47.226;39.702;2023-03-22T12:58:07;100553.31;;;17.66;43.50
52651;BME280;38537;47.226;39.702;2023-03-22T13:00:39;100558.81;;;17.62;43.82
52651;BME280;38537;47.226;39.702;2023-03-22T13:05:43;100558.16;;;17.65;43.14
52651;BME280;38537;47.226;39.702;2023-03-22T13:08:18;100547.69;;;17.33;43.91
52651;BME280;38537;47.226;39.702;2023-03-22T13:11:03;100549.25;;;17.30;44.07
52651;BME280;38537;47.226;39.702;2023-03-22T13:13:41;100538.50;;;17.24;44.55
52651;BME280;38537;47.226;39.702;2023-03-22T13:18:38;100563.72;;;17.41;44.65
52651;BME280;38537;47.226;39.702;2023-03-22T13:21:25;100573.22;;;17.36;44.42
52651;BME280;38537;47.226;39.702;2023-03-22T13:26:42;100567.03;;;17.55;44.58
52651;BME280;38537;47.226;39.702;2023-03-22T13:29:24;100538.22;;;17.62;45.23
52651;BME280;38537;47.226;39.702;2023-03-22T13:32:00;100543.53;;;17.63;44.28
52651;BME280;38537;47.226;39.702;2023-03-22T13:34:38;100537.28;;;17.58;44.22
52651;BME280;38537;47.226;39.702;2023-03-22T13:37:36;100544.50;;;17.67;44.24
52651;BME280;38537;47.226;39.702;2023-03-22T13:43:33;100565.91;;;17.80;44.02
52651;BME280;38537;47.226;39.702;2023-03-22T14:02:20;100566.25;;;17.22;44.61
52651;BME280;38537;47.226;39.702;2023-03-22T14:07:46;100568.66;;;17.32;44.95
52651;BME280;38537;47.226;39.702;2023-03-22T14:10:51;100557.72;;;17.30;44.99
52651;BME280;38537;47.226;39.702;2023-03-22T14:18:58;100558.16;;;17.77;45.17
52651;BME280;38537;47.226;39.702;2023-03-22T14:21:33;100580.53;;;18.07;44.73
52651;BME280;38537;47.226;39.702;2023-03-22T14:24:01;100575.25;;;18.18;44.50
52651;BME280;38537;47.226;39.702;2023-03-22T14:26:35;100577.69;;;18.19;44.59
52651;BME280;38537;47.226;39.702;2023-03-22T14:31:39;100589.00;;;18.31;43.62
52651;BME280;38537;47.226;39.702;2023-03-22T14:34:09;100596.22;;;18.17;43.39
52651;BME280;38537;47.226;39.702;2023-03-22T14:36:40;100583.47;;;17.98;43.24
52651;BME280;38537;47.226;39.702;2023-03-22T14:39:22;100593.84;;;17.94;43.41
52651;BME280;38537;47.226;39.702;2023-03-22T14:41:56;100589.13;;;17.74;43.63
52651;BME280;38537;47.226;39.702;2023-03-22T14:44:23;100599.59;;;17.86;44.07
52651;BME280;38537;47.226;39.702;2023-03-22T14:46:49;100561.63;;;17.50;43.88
52651;BME280;38537;47.226;39.702;2023-03-22T14:49:17;100597.50;;;17.50;43.86
52651;BME280;38537;47.226;39.702;2023-03-22T14:51:46;100595.81;;;17.36;44.10